Airfield :







YOU CAN JOIN US ON...

 
LOGIN :

Register | Disclaimer

   EN    FR    IT 

 









Legend :    VFR   Marginal VFR   IFR   Intensive IFR   Very Intensive IFR
Visi :
Ceiling :
>= 8 km
>= 3000ft
5 to 8 km
1000 to 3000 ft
1500m to 5 km
500 to 1000 ft
800 to 1500m
200 to 500 ft
< 800m
< 200 ft
Symbols :   Thunderstorms  Fog  Heavy snow  Heavy precipitations  Wind > 20 kt







- Airport Elevation : 1709 ft
- IATA code : YKL


CYKL - Schefferville

CURRENT METAR :
  • 172242Z AUTO 24005KT 200V290 8SM BKN011 M33/M37 A2975 RMK SLP151

EXPIRED METARs :
  • 172200Z AUTO 26010G17KT 9SM FEW043 M32/M37 A2974 RMK SLP147
  • 172100Z AUTO 27008KT 9SM FEW011 M32/M36 A2973 RMK SLP143
  • 172000Z AUTO 31005KT 240V350 9SM CLR M31/M36 A2973 RMK SLP143

TAF TAF CYKL
Valid from the 17 at 20:00 until the 18 at 08:00 UTC


171944Z 1720/1808 28010KT P6SM SKC
TEMPO 1720/1808 5SM IC -SN
BECMG 1806/1808 24008KT RMK FCST BASED ON AUTO OBS. NXT FCST BY 180200Z
CZUL FIR / North America



MET'MAP, your aeronautical weather chart ! - Copyright ORBIFLY December 2007 - Disclaimer

ORBIFLY MET'MAP TEAM :

Programming & Development : Alexandra Zaïnal
Concept & Development : Baudouin d'Aumeries
Co-Development & Prog : Marc-Olivier Méhu
Technical & hardware support : Manuel Goepfert

Contact : metmap@orbifly.com




SOURCES & CREDITS :

   NOAA